»·PEaware :: DFGCW KKLS-0S0

DFGCW :: KKLS-0S0

FLIGHT INFORMATION

Flight Status: Arrived
Operator: Unknown
More flights by this operator :: More flights under this callsign
Pilot: Klaus A. (15485)
Aircraft: PILATUS PC-12 EAGLE
(PC12)
More flights by this aircraft type
Origin: KKLS Kelso-Longview
United States
Destination: 0S0 Lind
United States
More flights between these airports :: More routes between these airports
Route: KELSO1 KELNG PITER V112 BTG V448 YKM V448 RUBEL UPBOB
File this flight plan on PilotEdge
Remarks:
Altitude:
(Current/Filed)
21,000ft
Speed:
(Current/Filed)
230kts
Departed: 04-May-20 08:35 AM
Arrived: 04-May-20 09:42 AM
Distance/Time
Traveled:
185nm/1:07
Distance/Time
To Go:
Arrived

Flight Plot

Page will automatically refresh every two minutes.

Flight plan parsing failed; only flown route is shown


Map Options




Map Legend


Flown Route
Filed Route
Departure Airport
Arrival Airport
Navaid (VOR, NDB)
Fix

Horizontal Profiles

Position Reports

Time Latitude Longitude Heading Altitude Ground
Speed
04-May-20 08:06 46.120815 -122.899044 141 25ft 0kts
04-May-20 08:07 46.120815 -122.899044 141 25ft 0kts
04-May-20 08:08 46.120815 -122.899044 141 25ft 0kts
04-May-20 08:09 46.120815 -122.899044 141 25ft 0kts
04-May-20 08:10 46.120815 -122.899044 141 25ft 0kts
04-May-20 08:11 46.120815 -122.899044 141 25ft 0kts
04-May-20 08:12 46.120815 -122.899044 141 25ft 0kts
04-May-20 08:13 46.120815 -122.899044 141 25ft 0kts
04-May-20 08:14 46.120815 -122.899044 141 25ft 0kts
04-May-20 08:15 46.120815 -122.899044 141 25ft 0kts
04-May-20 08:17 46.120815 -122.899044 141 25ft 0kts
04-May-20 08:18 46.120814 -122.899044 141 25ft 0kts
04-May-20 08:19 46.120815 -122.899044 141 25ft 0kts
04-May-20 08:20 46.120815 -122.899044 141 25ft 0kts
04-May-20 08:21 46.120815 -122.899044 141 25ft 0kts
04-May-20 08:22 46.120815 -122.899044 141 25ft 0kts
04-May-20 08:23 46.120815 -122.899044 141 25ft 0kts
04-May-20 08:24 46.120815 -122.899044 141 25ft 0kts
04-May-20 08:25 46.120815 -122.899044 141 25ft 0kts
04-May-20 08:26 46.120815 -122.899044 141 25ft 0kts
04-May-20 08:27 46.120633 -122.899094 237 25ft 4kts
04-May-20 08:28 46.118461 -122.897882 139 25ft 15kts
04-May-20 08:29 46.114620 -122.893297 140 25ft 20kts
04-May-20 08:30 46.113761 -122.892415 221 25ft 0kts
04-May-20 08:31 46.113761 -122.892415 221 25ft 0kts
04-May-20 08:31 46.113761 -122.892415 221 25ft 0kts
04-May-20 08:33 46.113753 -122.892425 216 25ft 1kts
04-May-20 08:34 46.113675 -122.893229 320 25ft 0kts
04-May-20 08:34 46.121713 -122.902648 321 143ft 103kts
04-May-20 08:35 46.143838 -122.938189 286 1711ft 123kts
04-May-20 08:37 46.153419 -122.997460 286 3772ft 130kts
04-May-20 08:37 46.164910 -123.039064 292 5156ft 139kts
04-May-20 08:38 46.176761 -123.091209 268 6829ft 145kts
04-May-20 08:40 46.170112 -123.156515 229 8698ft 147kts
04-May-20 08:40 46.143840 -123.143361 91 9734ft 157kts
04-May-20 08:41 46.172534 -123.103394 28 10983ft 158kts
04-May-20 08:42 46.167846 -123.058149 177 12214ft 162kts
04-May-20 08:43 46.126816 -123.080562 165 13099ft 177kts
04-May-20 08:44 46.081902 -123.065994 177 14397ft 159kts
04-May-20 08:45 46.037988 -123.061070 177 15585ft 160kts
04-May-20 08:46 45.993109 -123.056341 177 16877ft 164kts
04-May-20 08:47 45.947259 -123.051540 177 18061ft 167kts
04-May-20 08:48 45.900781 -123.045351 153 19114ft 171kts
04-May-20 08:49 45.877114 -122.987274 114 20066ft 172kts
04-May-20 08:50 45.857056 -122.925564 114 21017ft 172kts
04-May-20 08:51 45.835281 -122.858673 114 21269ft 218kts
04-May-20 08:52 45.807397 -122.773206 114 21260ft 250kts
04-May-20 08:53 45.777104 -122.680688 114 21257ft 261kts
04-May-20 08:54 45.754021 -122.583458 70 21263ft 261kts
04-May-20 08:55 45.792051 -122.494756 55 21256ft 262kts
04-May-20 08:56 45.832142 -122.406758 55 21247ft 263kts
04-May-20 08:57 45.872094 -122.318796 55 21247ft 264kts
04-May-20 08:58 45.912070 -122.230504 55 21246ft 264kts
04-May-20 08:59 45.952026 -122.141978 55 21246ft 264kts
04-May-20 09:00 45.991656 -122.053897 55 21310ft 263kts
04-May-20 09:01 46.031444 -121.965186 55 21310ft 263kts
04-May-20 09:02 46.071123 -121.876436 55 21310ft 264kts
04-May-20 09:03 46.108647 -121.792250 55 21311ft 264kts
04-May-20 09:04 46.149075 -121.701246 55 21311ft 264kts
04-May-20 09:05 46.188589 -121.612048 55 21311ft 264kts
04-May-20 09:06 46.228139 -121.522460 55 21273ft 266kts
04-May-20 09:07 46.268507 -121.430720 55 20274ft 270kts
04-May-20 09:08 46.308888 -121.338654 56 19274ft 270kts
04-May-20 09:09 46.349009 -121.246875 56 18145ft 270kts
04-May-20 09:10 46.388365 -121.156561 56 17317ft 258kts
04-May-20 09:11 46.423709 -121.070448 68 17321ft 243kts
04-May-20 09:12 46.447042 -120.974031 69 16365ft 264kts
04-May-20 09:13 46.470568 -120.873697 69 15819ft 257kts
04-May-20 09:14 46.493407 -120.775666 69 15820ft 254kts
04-May-20 09:15 46.515947 -120.678503 69 15820ft 254kts
04-May-20 09:16 46.538423 -120.581178 69 15820ft 253kts
04-May-20 09:17 46.560761 -120.484005 69 15820ft 253kts
04-May-20 09:18 46.582984 -120.386891 69 15820ft 253kts
04-May-20 09:19 46.605571 -120.287745 70 15505ft 263kts
04-May-20 09:20 46.628142 -120.188198 70 15497ft 257kts
04-May-20 09:21 46.650368 -120.089727 70 15507ft 254kts
04-May-20 09:22 46.672374 -119.991777 70 15507ft 254kts
04-May-20 09:23 46.694271 -119.893858 70 15339ft 260kts
04-May-20 09:24 46.716552 -119.793750 70 14338ft 257kts
04-May-20 09:25 46.738376 -119.695230 70 13336ft 254kts
04-May-20 09:26 46.759959 -119.597351 70 12336ft 253kts
04-May-20 09:27 46.781463 -119.499368 70 11334ft 252kts
04-May-20 09:28 46.802803 -119.401684 70 10334ft 252kts
04-May-20 09:29 46.824049 -119.303970 71 9332ft 252kts
04-May-20 09:30 46.844780 -119.208170 71 8314ft 237kts
04-May-20 09:31 46.864104 -119.118483 71 7300ft 227kts
04-May-20 09:32 46.882783 -119.031412 71 6294ft 223kts
04-May-20 09:33 46.900606 -118.947770 72 5518ft 211kts
04-May-20 09:34 46.916837 -118.871629 70 5485ft 185kts
04-May-20 09:35 46.931993 -118.800429 71 5187ft 188kts
04-May-20 09:36 46.948481 -118.730701 68 4350ft 187kts
04-May-20 09:37 46.960992 -118.656502 79 3491ft 186kts
04-May-20 09:38 46.967423 -118.583514 80 2288ft 161kts
04-May-20 09:39 46.980162 -118.547094 342 2025ft 94kts
04-May-20 09:40 46.980621 -118.575692 248 1617ft 86kts
04-May-20 09:41 46.975270 -118.591238 211 1511ft 11kts
04-May-20 09:42 46.974371 -118.591554 111 1511ft 0kts
04-May-20 09:43 46.974371 -118.591555 111 1511ft 0kts
04-May-20 09:44 46.974371 -118.591555 111 1511ft 0kts
04-May-20 09:45 46.974371 -118.591555 111 1511ft 0kts

Navigation Log

Ident Type
Flight plan parsing failed, navigation log unavailable